Данни от 22.09.2021 г. 20:57:50

Температура вътрешна: 23.3 °C
Температура външна: 12.0 °C
Атмосферно налягане: 1000.9 hPa
Атмосферно налягане на морско равнище: 1018.7 hPa
Влажност: 40.8 %



История от последните 24 часа

Дата и часTin [°C]P [hPa]Psl [hPa]H [%]Tout [°C]
   22.09.2021 г. 20:30:50      23.3      1000.9      1018.7      40.7      13.8   
   22.09.2021 г. 20:00:50      23.3      1000.6      1018.5      39.6      12.9   
   22.09.2021 г. 19:30:50      23.4      1000.6      1018.5      39.4      13.3   
   22.09.2021 г. 19:00:50      23.3      1000.5      1018.4      38.4      13.9   
   22.09.2021 г. 18:30:50      23.3      1000.5      1018.4      38.0      15.1   
   22.09.2021 г. 18:00:50      23.2      1000.2      1018.1      36.7      16.6   
   22.09.2021 г. 17:30:50      23.2      999.9      1017.8      36.8      16.3   
   22.09.2021 г. 17:00:50      23.1      1000.1      1017.9      35.7      16.9   
   22.09.2021 г. 16:30:50      23.1      1000.1      1018.0      36.0      17.4   
   22.09.2021 г. 16:00:50      23.0      1000.3      1018.2      35.2      17.3   
   22.09.2021 г. 15:30:50      23.0      1000.4      1018.3      34.7      16.9   
   22.09.2021 г. 15:00:50      23.0      1000.5      1018.3      35.2      17.0   
   22.09.2021 г. 14:30:50      22.9      1000.5      1018.4      35.1      18.5   
   22.09.2021 г. 14:00:50      23.3      1000.7      1018.6      37.4      18.1   
   22.09.2021 г. 13:30:50      23.3      1001.0      1018.9      37.7      17.9   
   22.09.2021 г. 13:00:50      23.3      1001.2      1019.1      38.4      18.2   
   22.09.2021 г. 12:30:50      23.3      1001.2      1019.1      38.9      17.0   
   22.09.2021 г. 12:00:50      23.3      1001.5      1019.4      37.4      18.1   
   22.09.2021 г. 11:30:49      23.2      1001.9      1019.8      37.8      18.1   
   22.09.2021 г. 11:00:50      23.2      1002.4      1020.2      37.2      16.1   
   22.09.2021 г. 10:30:49      23.1      1002.4      1020.3      37.1      17.1   
   22.09.2021 г. 10:00:50      23.3      1002.4      1020.3      38.1      16.4   
   22.09.2021 г. 09:30:49      23.2      1002.6      1020.5      37.9      17.0   
   22.09.2021 г. 09:00:50      23.3      1002.6      1020.5      38.2      15.4   
   22.09.2021 г. 08:30:49      23.3      1002.5      1020.4      38.5      15.1   
   22.09.2021 г. 08:00:50      23.3      1002.5      1020.4      37.8      15.4   
   22.09.2021 г. 07:30:49      23.1      1002.6      1020.5      37.6      14.4   
   22.09.2021 г. 07:00:50      23.1      1002.7      1020.6      37.1      15.3   
   22.09.2021 г. 06:30:50      23.0      1002.7      1020.5      38.2      14.5   
   22.09.2021 г. 06:00:50      23.1      1002.8      1020.7      37.5      15.0   
   22.09.2021 г. 05:30:50      23.2      1002.9      1020.8      37.7      15.8   
   22.09.2021 г. 05:00:50      23.2      1003.2      1021.1      37.3      15.9   
   22.09.2021 г. 04:30:50      23.3      1003.4      1021.3      38.2      15.8   
   22.09.2021 г. 04:00:50      23.3      1003.6      1021.6      38.2      16.0   
   22.09.2021 г. 03:30:50      23.4      1004.0      1022.0      39.4      16.4   
   22.09.2021 г. 03:00:50      23.5      1004.0      1021.9      39.0      16.9   
   22.09.2021 г. 02:30:50      23.5      1004.3      1022.2      40.1      16.6   
   22.09.2021 г. 02:00:50      23.6      1004.5      1022.5      39.1      16.4   
   22.09.2021 г. 01:30:50      23.6      1004.6      1022.6      38.2      17.1   
   22.09.2021 г. 01:00:50      23.8      1004.7      1022.6      38.3      17.6   
   22.09.2021 г. 00:30:50      23.9      1004.8      1022.7      39.0      17.3   
   22.09.2021 г. 00:00:50      24.2      1004.8      1022.7      39.8      17.5   
   21.09.2021 г. 23:30:50      23.8      1004.6      1022.6      39.3      17.3   
   21.09.2021 г. 23:00:50      23.9      1004.4      1022.3      40.1      17.0   
   21.09.2021 г. 22:30:50      24.0      1004.3      1022.2      40.6      16.5   
   21.09.2021 г. 22:00:50      24.1      1004.4      1022.3      41.1      16.9   
   21.09.2021 г. 21:30:50      24.1      1004.5      1022.4      41.9      16.9   
   21.09.2021 г. 21:00:49      24.3      1004.5      1022.4      42.9      17.3   

BaroSL graphic

TEMPE graphic